createdAt,value
2019-05-03T00:02:59.424Z,53.71
2019-05-03T00:06:05.296Z,54.09
2019-05-03T00:09:09.253Z,53.98
2019-05-03T00:12:12.690Z,54.01
2019-05-03T00:15:22.788Z,53.84
2019-05-03T00:18:24.786Z,54.37
2019-05-03T00:21:26.684Z,54.47
2019-05-03T00:24:28.634Z,54.48
2019-05-03T00:27:32.261Z,54.29
2019-05-03T00:30:34.840Z,54.35
2019-05-03T00:33:37.789Z,54.76
2019-05-03T00:36:47.157Z,55.31
2019-05-03T00:39:53.678Z,56.80
2019-05-03T00:42:57.343Z,56.09
2019-05-03T00:45:59.288Z,55.72
2019-05-03T00:49:01.214Z,55.57
2019-05-03T00:52:04.430Z,55.44
2019-05-03T00:55:16.076Z,55.28
2019-05-03T00:58:11.752Z,55.03
2019-05-03T01:01:14.317Z,54.95
2019-05-03T01:04:16.292Z,54.95
2019-05-03T01:07:18.236Z,54.96
2019-05-03T01:10:22.418Z,54.98
2019-05-03T01:13:24.166Z,54.97
2019-05-03T01:16:26.075Z,54.98
2019-05-03T01:19:28.072Z,55.35
2019-05-03T01:22:31.994Z,55.74
2019-05-03T01:25:35.546Z,55.94
2019-05-03T01:28:38.885Z,56.09
2019-05-03T01:31:42.176Z,56.24
2019-05-03T01:34:44.194Z,56.13
2019-05-03T01:37:47.359Z,56.08
2019-05-03T01:40:49.439Z,56.16
2019-05-03T01:43:52.618Z,56.06
2019-05-03T01:46:56.620Z,56.03
2019-05-03T01:50:00.338Z,56.10
2019-05-03T01:53:04.597Z,56.45
2019-05-03T01:56:06.506Z,56.64
2019-05-03T01:59:08.549Z,56.57
2019-05-03T02:02:13.069Z,56.84
2019-05-03T02:05:33.430Z,57.15
2019-05-03T02:08:35.340Z,57.26
2019-05-03T02:11:37.348Z,57.34
2019-05-03T02:14:39.260Z,57.34
2019-05-03T02:17:42.667Z,57.16
2019-05-03T02:20:44.871Z,57.05
2019-05-03T02:23:46.832Z,57.00
2019-05-03T02:26:48.781Z,56.90
2019-05-03T02:29:52.429Z,56.81
2019-05-03T02:32:54.792Z,56.78
2019-05-03T02:35:56.747Z,56.91
2019-05-03T02:38:58.672Z,57.00
2019-05-03T02:42:07.915Z,57.06
2019-05-03T02:45:09.066Z,57.08
2019-05-03T02:48:18.628Z,57.18
2019-05-03T02:51:20.555Z,57.34
2019-05-03T02:54:22.491Z,57.44
2019-05-03T02:57:25.893Z,57.57
2019-05-03T03:00:47.063Z,57.87
2019-05-03T03:03:49.743Z,57.94
2019-05-03T03:06:55.461Z,57.98
2019-05-03T03:09:58.388Z,58.21
2019-05-03T03:13:05.751Z,58.30
2019-05-03T03:16:09.056Z,58.40
2019-05-03T03:19:15.873Z,58.33
2019-05-03T03:50:05.982Z,57.62
2019-05-03T03:53:10.060Z,57.64
2019-05-03T03:56:16.058Z,57.34
2019-05-03T03:59:18.406Z,57.12
2019-05-03T04:02:20.463Z,56.98
2019-05-03T04:05:25.188Z,57.13
2019-05-03T04:08:26.197Z,57.19
2019-05-03T04:11:28.220Z,57.22
2019-05-03T04:14:38.544Z,57.19
2019-05-03T04:17:59.706Z,57.06
2019-05-03T04:21:01.738Z,56.95
2019-05-03T04:24:06.024Z,56.61
2019-05-03T04:27:18.012Z,55.83
2019-05-03T04:30:11.641Z,55.17
2019-05-03T04:33:16.032Z,54.48
2019-05-03T04:36:17.640Z,54.03
2019-05-03T04:39:20.385Z,53.73
2019-05-03T04:42:25.357Z,53.57
2019-05-03T04:45:26.849Z,53.35
2019-05-03T04:48:28.910Z,53.27
2019-05-03T04:51:30.924Z,53.07
2019-05-03T04:54:41.351Z,52.99
2019-05-03T04:57:46.787Z,53.08
2019-05-03T05:00:48.522Z,53.20
2019-05-03T05:03:50.455Z,53.39
2019-05-03T05:06:52.447Z,53.50
2019-05-03T05:09:56.268Z,53.61
2019-05-03T05:12:58.600Z,53.67
2019-05-03T05:16:01.162Z,53.69
2019-05-03T05:19:07.919Z,53.70
2019-05-03T05:22:15.553Z,53.42
2019-05-03T05:25:19.847Z,53.09
2019-05-03T05:28:26.673Z,52.84
2019-05-03T05:31:28.604Z,52.57
2019-05-03T05:34:30.574Z,51.79
2019-05-03T05:37:32.582Z,51.38
2019-05-03T05:40:35.011Z,50.84
2019-05-03T05:43:37.624Z,50.18
2019-05-03T05:46:59.128Z,49.50
2019-05-03T05:50:04.872Z,48.84
2019-05-03T05:53:06.828Z,49.24
2019-05-03T05:56:25.741Z,49.36
2019-05-03T05:59:29.582Z,49.63
2019-05-03T06:02:31.786Z,49.97
2019-05-03T06:05:35.553Z,50.08
2019-05-03T06:08:39.670Z,50.06
2019-05-03T06:12:00.567Z,49.93
2019-05-03T06:15:06.471Z,49.93
2019-05-03T06:18:14.678Z,49.81
2019-05-03T06:21:21.630Z,49.35
2019-05-03T06:24:25.382Z,48.22
2019-05-03T06:27:29.280Z,47.82
2019-05-03T06:30:35.012Z,47.46
2019-05-03T06:33:36.929Z,47.46
2019-05-03T06:36:40.151Z,47.51
2019-05-03T06:39:42.071Z,47.48
2019-05-03T06:42:52.409Z,47.41
2019-05-03T06:45:50.483Z,47.69
2019-05-03T06:48:52.118Z,47.68
2019-05-03T06:51:54.737Z,47.71
2019-05-03T06:55:00.378Z,48.02
2019-05-03T06:58:00.648Z,47.92
2019-05-03T07:01:16.046Z,47.89
2019-05-03T07:04:36.298Z,47.83
2019-05-03T07:07:40.085Z,47.83
2019-05-03T07:10:44.482Z,47.84
2019-05-03T07:13:46.558Z,47.69
2019-05-03T07:16:48.475Z,47.52
2019-05-03T07:19:51.510Z,47.70
2019-05-03T07:22:55.768Z,47.66
2019-05-03T07:25:59.114Z,47.66
2019-05-03T07:29:01.089Z,47.92
2019-05-03T07:32:05.067Z,47.99
2019-05-03T07:35:07.171Z,48.15
2019-05-03T07:38:09.108Z,48.27
2019-05-03T07:41:11.017Z,48.08
2019-05-03T07:44:15.136Z,47.85
2019-05-03T07:47:17.216Z,47.63
2019-05-03T07:50:19.099Z,47.67
2019-05-03T07:53:21.091Z,47.69
2019-05-03T07:56:25.483Z,47.78
2019-05-03T07:59:28.825Z,48.18
2019-05-03T08:02:30.752Z,47.97
2019-05-03T08:05:32.640Z,47.55
2019-05-03T08:08:35.408Z,46.78
2019-05-03T08:11:37.792Z,46.61
2019-05-03T08:14:39.655Z,46.19
2019-05-03T08:17:41.674Z,45.63
2019-05-03T08:20:45.155Z,44.82
2019-05-03T08:23:47.460Z,44.28
2019-05-03T08:26:49.325Z,43.85
2019-05-03T08:29:51.282Z,42.68
2019-05-03T08:33:01.002Z,42.48
2019-05-03T08:36:04.840Z,41.78
2019-05-03T08:39:06.910Z,41.76
2019-05-03T08:42:10.674Z,41.31
2019-05-03T08:45:14.649Z,41.27
2019-05-03T08:48:17.471Z,41.30
2019-05-03T08:51:19.434Z,41.35
2019-05-03T08:54:21.356Z,40.86
2019-05-03T08:57:25.422Z,41.20
2019-05-03T09:00:28.984Z,40.17
2019-05-03T09:03:30.935Z,39.53
2019-05-03T09:06:32.799Z,39.01
2019-05-03T09:09:36.951Z,39.16
2019-05-03T09:12:57.288Z,39.24
2019-05-03T09:15:59.315Z,38.93
2019-05-03T09:19:01.258Z,39.45
2019-05-03T09:22:06.277Z,39.51
2019-05-03T09:25:08.388Z,39.76
2019-05-03T09:28:10.377Z,40.14
2019-05-03T09:31:12.432Z,40.04
2019-05-03T09:34:14.843Z,39.95
2019-05-03T09:37:17.052Z,39.44
2019-05-03T09:40:18.959Z,38.70
2019-05-03T09:43:21.026Z,38.79
2019-05-03T09:46:25.659Z,37.96
2019-05-03T09:49:26.925Z,37.96
2019-05-03T09:52:28.844Z,38.28
2019-05-03T09:55:32.598Z,38.26
2019-05-03T09:58:37.918Z,38.16
2019-05-03T10:01:38.555Z,37.90
2019-05-03T10:04:40.561Z,37.96
2019-05-03T10:07:42.513Z,37.88
2019-05-03T10:11:05.295Z,37.61
2019-05-03T10:14:08.549Z,37.38
2019-05-03T10:17:28.699Z,37.82
2019-05-03T10:20:30.698Z,37.78
2019-05-03T10:23:35.782Z,38.20
2019-05-03T10:26:38.125Z,37.85
2019-05-03T10:29:40.034Z,37.79
2019-05-03T10:32:52.874Z,38.23
2019-05-03T10:35:54.873Z,38.26
2019-05-03T10:38:56.975Z,38.26
2019-05-03T10:41:58.929Z,37.94
2019-05-03T10:45:00.843Z,38.16
2019-05-03T10:48:04.806Z,37.84
2019-05-03T10:51:06.756Z,37.95
2019-05-03T10:54:08.775Z,37.37
2019-05-03T10:57:15.926Z,36.72
2019-05-03T11:00:42.553Z,36.66
2019-05-03T11:03:23.923Z,37.13
2019-05-03T11:06:25.972Z,36.50
2019-05-03T11:09:27.954Z,36.58
2019-05-03T11:12:29.964Z,36.45
2019-05-03T11:15:31.891Z,36.31
2019-05-03T11:18:34.788Z,36.14
2019-05-03T11:21:36.695Z,36.14
2019-05-03T11:24:38.985Z,35.86
2019-05-03T11:27:44.615Z,36.28
2019-05-03T11:30:55.313Z,36.21
2019-05-03T11:33:50.762Z,35.58
2019-05-03T11:36:57.320Z,35.47
2019-05-03T11:39:59.270Z,35.43
2019-05-03T11:43:02.068Z,36.15
2019-05-03T11:46:04.052Z,36.55
2019-05-03T11:49:05.982Z,36.34
2019-05-03T11:52:07.869Z,36.71
2019-05-03T11:55:11.822Z,37.62
2019-05-03T11:58:18.069Z,37.94
2019-05-03T12:01:21.947Z,37.57
2019-05-03T12:04:24.953Z,37.80
2019-05-03T12:07:39.345Z,37.56
2019-05-03T12:10:51.608Z,37.40
2019-05-03T12:13:40.820Z,36.98
2019-05-03T12:19:50.974Z,36.30
2019-05-03T12:22:54.224Z,36.12
2019-05-03T12:25:57.804Z,36.08
2019-05-03T12:29:00.120Z,36.00
2019-05-03T12:32:02.121Z,36.30
2019-05-03T12:35:06.097Z,35.66
2019-05-03T12:38:08.211Z,35.60
2019-05-03T12:41:10.189Z,35.56
2019-05-03T12:44:12.209Z,35.44
2019-05-03T12:47:14.601Z,34.29
2019-05-03T12:50:18.183Z,33.30
2019-05-03T12:53:21.989Z,34.13
2019-05-03T12:56:32.378Z,33.97
2019-05-03T12:59:30.980Z,34.81
2019-05-03T13:02:34.763Z,35.45
2019-05-03T13:05:36.938Z,34.64
2019-05-03T13:08:40.478Z,34.39
2019-05-03T13:11:53.025Z,33.91
2019-05-03T13:14:48.976Z,33.03
2019-05-03T13:17:50.943Z,33.27
2019-05-03T13:20:52.875Z,33.97
2019-05-03T13:23:54.983Z,33.82
2019-05-03T13:26:57.135Z,33.08
2019-05-03T13:29:59.400Z,33.52
2019-05-03T13:33:01.321Z,33.54
2019-05-03T13:36:04.039Z,33.90
2019-05-03T13:39:13.357Z,34.69
2019-05-03T13:42:11.919Z,34.30
2019-05-03T13:45:13.888Z,33.28
2019-05-03T13:48:20.993Z,33.22
2019-05-03T13:51:19.708Z,33.09
2019-05-03T13:54:21.623Z,32.48
2019-05-03T13:57:24.585Z,32.31
2019-05-03T14:00:26.650Z,32.06
2019-05-03T14:03:28.718Z,32.39
2019-05-03T14:06:33.603Z,32.18
2019-05-03T14:09:34.900Z,32.90
2019-05-03T14:12:37.238Z,32.43
2019-05-03T14:15:39.231Z,31.96
2019-05-03T14:18:41.585Z,31.82
2019-05-03T14:21:45.565Z,31.91
2019-05-03T14:24:47.707Z,32.00
2019-05-03T14:27:59.668Z,31.51
2019-05-03T14:31:05.131Z,31.37
2019-05-03T14:34:10.908Z,31.44
2019-05-03T14:37:13.294Z,31.55
2019-05-03T14:40:15.236Z,31.03
2019-05-03T14:43:17.213Z,31.00
2019-05-03T14:46:30.033Z,30.83
2019-05-03T14:49:23.081Z,30.79
2019-05-03T14:52:25.268Z,30.56
2019-05-03T14:55:42.347Z,30.30
2019-05-03T14:58:52.294Z,29.84
2019-05-03T15:01:56.097Z,30.27
2019-05-03T15:04:58.219Z,30.81
2019-05-03T15:08:00.246Z,30.59
2019-05-03T15:11:02.411Z,30.17
2019-05-03T15:14:05.625Z,29.67
2019-05-03T15:17:07.956Z,29.60
2019-05-03T15:20:10.970Z,29.57
2019-05-03T15:23:14.675Z,29.56
2019-05-03T15:26:16.836Z,29.86
2019-05-03T15:29:18.871Z,31.03
2019-05-03T15:32:20.878Z,31.24
2019-05-03T15:35:23.052Z,31.00
2019-05-03T15:38:25.044Z,30.79
2019-05-03T15:41:27.033Z,31.15
2019-05-03T15:44:47.554Z,31.44
2019-05-03T15:47:51.403Z,30.94
2019-05-03T15:50:55.183Z,31.43
2019-05-03T15:53:57.281Z,31.82
2019-05-03T15:56:59.234Z,31.76
2019-05-03T16:00:03.088Z,31.98
2019-05-03T16:03:10.460Z,31.51
2019-05-03T16:06:11.284Z,31.90
2019-05-03T16:09:15.221Z,32.06
2019-05-03T16:12:18.321Z,32.32
2019-05-03T16:15:21.867Z,32.80
2019-05-03T16:18:24.603Z,33.40
2019-05-03T16:21:27.684Z,33.30
2019-05-03T16:24:35.491Z,33.34
2019-05-03T16:27:39.365Z,32.86
2019-05-03T16:30:45.415Z,32.58
2019-05-03T16:33:49.367Z,32.43
2019-05-03T16:36:54.855Z,32.22
2019-05-03T16:39:57.903Z,32.06
2019-05-03T16:42:59.939Z,32.07
2019-05-03T16:46:01.910Z,32.10
2019-05-03T16:49:04.562Z,32.23
2019-05-03T16:52:08.221Z,32.60
2019-05-03T16:55:10.209Z,33.14
2019-05-03T16:58:12.227Z,33.55
2019-05-03T17:01:17.831Z,33.76
2019-05-03T17:04:30.252Z,33.35
2019-05-03T17:07:45.417Z,33.38
2019-05-03T17:10:52.046Z,33.91
2019-05-03T17:13:57.637Z,34.46
2019-05-03T17:17:00.336Z,34.60
2019-05-03T17:20:05.611Z,34.60
2019-05-03T17:23:09.071Z,34.91
2019-05-03T17:26:11.092Z,35.38
2019-05-03T17:29:13.122Z,35.65
2019-05-03T17:32:15.398Z,35.79
2019-05-03T17:35:18.870Z,36.13
2019-05-03T17:38:20.807Z,36.57
2019-05-03T17:41:28.611Z,36.78
2019-05-03T17:44:34.523Z,37.07
2019-05-03T17:47:38.993Z,37.32
2019-05-03T17:50:40.979Z,37.66
2019-05-03T17:53:56.870Z,38.00
2019-05-03T17:57:17.725Z,38.32
2019-05-03T18:00:35.301Z,38.88
2019-05-03T18:03:39.068Z,39.70
2019-05-03T18:06:42.926Z,40.22
2019-05-03T18:09:46.716Z,40.74
2019-05-03T18:12:48.979Z,41.15
2019-05-03T18:15:54.355Z,41.73
2019-05-03T18:18:56.537Z,41.94
2019-05-03T18:21:59.893Z,42.38
2019-05-03T18:25:04.952Z,42.57
2019-05-03T18:28:07.184Z,42.71
2019-05-03T18:31:09.142Z,42.95
2019-05-03T18:34:19.176Z,42.85
2019-05-03T18:37:18.386Z,42.85
2019-05-03T18:40:20.702Z,43.12
2019-05-03T18:43:30.583Z,43.17
2019-05-03T18:46:37.899Z,43.19
2019-05-03T18:49:47.531Z,43.38
2019-05-03T18:52:51.896Z,43.59
2019-05-03T18:55:55.182Z,43.55
2019-05-03T18:58:57.681Z,43.39
2019-05-03T19:02:01.882Z,43.71
2019-05-03T19:05:06.663Z,43.86
2019-05-03T19:08:19.689Z,44.05
2019-05-03T19:11:31.131Z,44.15
2019-05-03T19:14:36.397Z,44.37
2019-05-03T19:17:41.498Z,44.82
2019-05-03T19:20:45.584Z,44.90
2019-05-03T19:23:47.524Z,45.15
2019-05-03T19:26:49.497Z,45.38
2019-05-03T19:29:55.412Z,45.54
2019-05-03T19:32:57.813Z,45.83
2019-05-03T19:36:01.172Z,46.36
2019-05-03T19:39:06.462Z,46.88
2019-05-03T19:42:15.398Z,47.21
2019-05-03T19:45:21.024Z,47.93
2019-05-03T19:48:25.929Z,48.11
2019-05-03T19:51:30.726Z,48.33
2019-05-03T19:54:36.520Z,48.41
2019-05-03T19:57:42.283Z,48.36
2019-05-03T20:00:52.439Z,48.27
2019-05-03T20:04:12.454Z,48.24
2019-05-03T20:07:22.063Z,48.10
2019-05-03T20:10:25.397Z,48.10
2019-05-03T20:13:34.602Z,48.09
2019-05-03T20:16:31.767Z,48.46
2019-05-03T20:19:34.704Z,48.59
2019-05-03T20:22:45.116Z,48.75
2019-05-03T20:25:47.159Z,48.81
2019-05-03T20:28:49.111Z,48.67
2019-05-03T20:31:51.127Z,48.87
2019-05-03T20:34:56.198Z,49.06
2019-05-03T20:38:00.076Z,49.42
2019-05-03T20:41:05.239Z,49.50
2019-05-03T20:44:11.018Z,49.88
2019-05-03T20:47:16.538Z,49.77
2019-05-03T20:50:20.561Z,49.67
2019-05-03T20:53:25.121Z,49.90
2019-05-03T20:56:28.871Z,50.34
2019-05-03T20:59:42.153Z,50.57
2019-05-03T21:02:50.518Z,50.80
2019-05-03T21:05:42.163Z,51.17
2019-05-03T21:08:52.921Z,51.06
2019-05-03T21:11:48.464Z,51.34
2019-05-03T21:14:50.419Z,51.25
2019-05-03T21:17:55.564Z,51.34
2019-05-03T21:21:09.426Z,51.46
2019-05-03T21:24:13.215Z,51.48
2019-05-03T21:27:15.332Z,51.70
2019-05-03T21:30:17.454Z,51.84
2019-05-03T21:33:19.443Z,51.95
2019-05-03T21:36:21.425Z,52.10
2019-05-03T21:39:24.643Z,52.35
2019-05-03T21:42:27.013Z,52.40
2019-05-03T21:45:37.104Z,52.50
2019-05-03T21:48:59.689Z,52.54
2019-05-03T21:52:01.640Z,52.59
2019-05-03T21:55:05.600Z,52.85
2019-05-03T21:58:07.513Z,53.04
2019-05-03T22:01:11.258Z,52.71
2019-05-03T22:04:15.420Z,52.69
2019-05-03T22:07:17.112Z,52.63
2019-05-03T22:10:19.049Z,52.63
2019-05-03T22:13:21.046Z,52.96
2019-05-03T22:16:41.406Z,53.39
2019-05-03T22:19:45.134Z,53.65
2019-05-03T22:22:48.879Z,53.54
2019-05-03T22:25:50.807Z,53.59
2019-05-03T22:28:54.712Z,53.49
2019-05-03T22:31:56.754Z,53.65
2019-05-03T22:34:58.635Z,53.58
2019-05-03T22:38:00.674Z,53.55
2019-05-03T22:41:02.736Z,53.75
2019-05-03T22:44:04.716Z,53.58
2019-05-03T22:47:07.744Z,53.60
2019-05-03T22:50:09.939Z,53.64
2019-05-03T22:53:11.875Z,53.64
2019-05-03T22:56:14.512Z,53.44
2019-05-03T22:59:16.913Z,53.43
2019-05-03T23:02:18.920Z,53.49
2019-05-03T23:05:20.833Z,53.30
2019-05-03T23:08:22.748Z,53.29
2019-05-03T23:11:24.718Z,53.46
2019-05-03T23:14:26.633Z,53.42
2019-05-03T23:17:28.537Z,53.49
2019-05-03T23:20:41.390Z,53.85
2019-05-03T23:23:51.520Z,53.56
2019-05-03T23:26:53.378Z,53.91
2019-05-03T23:29:55.434Z,53.81
2019-05-03T23:32:58.831Z,53.90
2019-05-03T23:36:00.790Z,53.72
2019-05-03T23:39:05.102Z,53.46
2019-05-03T23:42:07.472Z,53.37
2019-05-03T23:45:09.427Z,53.54
2019-05-03T23:48:11.326Z,53.23
2019-05-03T23:51:31.444Z,53.22
2019-05-03T23:54:33.360Z,53.64
2019-05-03T23:57:35.674Z,53.54
